createdAt,value
2019-04-22T00:00:40.755Z,9.23
2019-04-22T00:03:10.677Z,7.12
2019-04-22T00:05:58.858Z,6.47
2019-04-22T00:08:29.691Z,7.87
2019-04-22T00:11:07.938Z,7.05
2019-04-22T00:13:32.211Z,7.20
2019-04-22T00:15:56.571Z,6.78
2019-04-22T00:18:34.921Z,8.70
2019-04-22T00:21:02.301Z,7.12
2019-04-22T00:23:23.487Z,7.12
2019-04-22T00:28:30.540Z,7.17
2019-04-22T00:31:05.062Z,8.23
2019-04-22T00:33:26.663Z,7.55
2019-04-22T00:35:54.582Z,9.20
2019-04-22T00:38:33.407Z,6.97
2019-04-22T00:41:00.567Z,7.80
2019-04-22T00:43:28.831Z,6.83
2019-04-22T00:46:10.952Z,7.67
2019-04-22T00:48:27.790Z,7.42
2019-04-22T00:51:01.602Z,8.45
2019-04-22T00:56:05.651Z,12.10
2019-04-22T00:58:31.187Z,9.28
2019-04-22T01:01:04.722Z,8.93
2019-04-22T01:03:34.183Z,9.40
2019-04-22T01:06:03.291Z,8.80
2019-04-22T01:08:40.387Z,7.80
2019-04-22T01:11:03.223Z,8.60
2019-04-22T01:13:30.593Z,7.33
2019-04-22T01:16:06.807Z,8.08
2019-04-22T01:18:32.592Z,7.58
2019-04-22T01:23:24.017Z,7.62
2019-04-22T01:25:55.242Z,9.90
2019-04-22T01:28:18.078Z,7.20
2019-04-22T01:30:45.091Z,7.30
2019-04-22T01:33:14.995Z,7.80
2019-04-22T01:35:55.016Z,9.03
2019-04-22T01:38:22.544Z,10.70
2019-04-22T01:40:59.749Z,9.18
2019-04-22T01:43:36.529Z,7.80
2019-04-22T01:46:02.303Z,12.50
2019-04-22T01:48:26.594Z,9.45
2019-04-22T01:50:56.215Z,8.75
2019-04-22T01:53:27.378Z,8.83
2019-04-22T01:56:00.293Z,7.45
2019-04-22T01:58:20.345Z,8.78
2019-04-22T02:00:53.701Z,10.28
2019-04-22T02:03:25.676Z,8.98
2019-04-22T02:05:53.581Z,8.65
2019-04-22T02:08:31.282Z,10.08
2019-04-22T02:11:09.344Z,7.37
2019-04-22T02:13:23.454Z,7.85
2019-04-22T02:15:53.733Z,8.88
2019-04-22T02:18:23.086Z,9.15
2019-04-22T02:20:50.365Z,9.55
2019-04-22T02:23:45.856Z,10.05
2019-04-22T02:26:00.928Z,10.63
2019-04-22T02:31:25.949Z,11.25
2019-04-22T02:38:51.889Z,7.80
2019-04-22T02:41:16.078Z,8.25
2019-04-22T02:43:44.066Z,11.18
2019-04-22T02:48:50.327Z,8.03
2019-04-22T02:51:02.502Z,7.87
2019-04-22T02:56:23.121Z,8.77
2019-04-22T02:58:42.127Z,8.40
2019-04-22T03:03:51.828Z,9.43
2019-04-22T03:08:30.156Z,10.07
2019-04-22T03:11:07.396Z,8.43
2019-04-22T03:13:29.340Z,8.30
2019-04-22T03:16:01.277Z,8.37
2019-04-22T03:18:31.425Z,7.53
2019-04-22T03:20:50.127Z,9.07
2019-04-22T03:23:36.851Z,10.13
2019-04-22T03:28:23.664Z,8.90
2019-04-22T03:31:47.402Z,12.23
2019-04-22T03:34:38.299Z,8.50
2019-04-22T03:39:20.335Z,11.60
2019-04-22T03:41:36.836Z,10.00
2019-04-22T03:44:10.148Z,12.20
2019-04-22T03:46:21.460Z,10.07
2019-04-22T03:49:04.888Z,8.63
2019-04-22T03:51:43.404Z,7.93
2019-04-22T03:54:03.249Z,12.10
2019-04-22T03:56:46.944Z,9.10
2019-04-22T03:58:58.616Z,9.80
2019-04-22T04:01:34.279Z,8.80
2019-04-22T04:03:51.281Z,9.17
2019-04-22T04:06:20.704Z,11.03
2019-04-22T04:08:39.062Z,11.83
2019-04-22T04:11:38.558Z,9.53
2019-04-22T04:16:21.472Z,12.07
2019-04-22T04:21:27.160Z,8.77
2019-04-22T04:26:23.919Z,9.73
2019-04-22T04:28:50.793Z,9.47
2019-04-22T04:36:07.875Z,9.73
2019-04-22T04:38:46.113Z,9.50
2019-04-22T04:41:23.083Z,12.23
2019-04-22T04:43:48.175Z,8.80
2019-04-22T04:46:16.543Z,11.87
2019-04-22T04:48:51.607Z,9.77
2019-04-22T04:51:16.297Z,10.37
2019-04-22T04:53:58.142Z,9.80
2019-04-22T04:56:13.239Z,11.40
2019-04-22T04:58:46.896Z,10.80
2019-04-22T05:01:07.517Z,9.27
2019-04-22T05:06:09.622Z,10.87
2019-04-22T05:08:54.365Z,9.60
2019-04-22T05:13:39.445Z,9.77
2019-04-22T05:16:17.316Z,10.60
2019-04-22T05:18:29.641Z,11.13
2019-04-22T05:21:12.278Z,12.10
2019-04-22T05:23:30.017Z,11.77
2019-04-22T05:25:48.818Z,12.87
2019-04-22T05:28:24.409Z,11.30
2019-04-22T05:30:46.105Z,12.67
2019-04-22T05:33:21.406Z,10.23
2019-04-22T05:35:46.462Z,10.63
2019-04-22T05:38:31.337Z,9.70
2019-04-22T05:40:40.870Z,13.20
2019-04-22T05:43:29.202Z,12.03
2019-04-22T05:45:43.280Z,13.83
2019-04-22T05:48:18.877Z,12.30
2019-04-22T05:50:47.352Z,11.33
2019-04-22T05:53:14.796Z,10.93
2019-04-22T05:55:52.372Z,11.00
2019-04-22T05:58:15.197Z,12.47
2019-04-22T06:01:14.419Z,14.23
2019-04-22T06:03:16.465Z,12.60
2019-04-22T06:06:06.413Z,11.03
2019-04-22T06:08:17.109Z,11.10
2019-04-22T06:10:53.110Z,11.43
2019-04-22T06:13:12.517Z,11.28
2019-04-22T06:15:40.511Z,12.78
2019-04-22T06:20:53.903Z,11.33
2019-04-22T06:23:19.063Z,11.97
2019-04-22T06:28:28.598Z,12.43
2019-04-22T06:30:53.499Z,12.37
2019-04-22T06:38:36.081Z,13.35
2019-04-22T06:40:46.582Z,16.50
2019-04-22T06:43:15.767Z,15.93
2019-04-22T06:45:41.391Z,15.05
2019-04-22T06:50:41.826Z,14.40
2019-04-22T06:53:14.467Z,10.93
2019-04-22T06:55:42.622Z,15.60
2019-04-22T06:58:10.427Z,18.50
2019-04-22T07:00:42.976Z,13.58
2019-04-22T07:05:41.227Z,11.10
2019-04-22T07:08:28.943Z,16.60
2019-04-22T07:13:10.726Z,12.70
2019-04-22T07:15:46.825Z,11.12
2019-04-22T07:18:11.702Z,11.48
2019-04-22T07:20:36.451Z,13.08
2019-04-22T07:23:10.692Z,14.30
2019-04-22T07:25:34.971Z,10.90
2019-04-22T07:28:00.945Z,11.22
2019-04-22T07:30:33.617Z,10.95
2019-04-22T07:35:36.010Z,9.70
2019-04-22T07:38:05.869Z,10.78
2019-04-22T07:40:34.124Z,12.30
2019-04-22T07:42:57.760Z,9.90
2019-04-22T07:45:29.563Z,9.08
2019-04-22T07:48:04.684Z,11.03
2019-04-22T07:50:42.749Z,10.63
2019-04-22T07:52:51.903Z,8.28
2019-04-22T07:55:30.586Z,8.60
2019-04-22T07:57:58.253Z,11.15
2019-04-22T08:02:59.749Z,8.83
2019-04-22T08:05:26.336Z,11.28
2019-04-22T08:07:59.479Z,7.25
2019-04-22T08:10:29.964Z,7.30
2019-04-22T08:12:51.937Z,8.83
2019-04-22T08:15:19.875Z,7.80
2019-04-22T08:20:23.668Z,11.28
2019-04-22T08:22:50.796Z,7.87
2019-04-22T08:25:20.964Z,10.35
2019-04-22T08:27:50.785Z,6.65
2019-04-22T08:30:20.376Z,7.53
2019-04-22T08:32:46.075Z,5.62
2019-04-22T08:35:21.333Z,5.92
2019-04-22T08:40:26.028Z,6.70
2019-04-22T08:42:53.369Z,7.20
2019-04-22T08:47:42.319Z,7.05
2019-04-22T08:50:15.073Z,5.87
2019-04-22T08:52:41.810Z,5.30
2019-04-22T08:55:12.702Z,6.78
2019-04-22T08:58:06.340Z,8.20
2019-04-22T09:00:08.383Z,7.58
2019-04-22T09:02:38.668Z,7.12
2019-04-22T09:05:20.400Z,6.62
2019-04-22T09:07:38.364Z,5.80
2019-04-22T09:10:10.969Z,5.33
2019-04-22T09:12:51.844Z,8.95
2019-04-22T09:15:08.634Z,7.70
2019-04-22T09:17:34.325Z,6.58
2019-04-22T09:20:11.268Z,5.20
2019-04-22T09:22:39.364Z,6.75
2019-04-22T09:25:03.805Z,6.97
2019-04-22T09:27:40.017Z,10.05
2019-04-22T09:30:06.188Z,4.53
2019-04-22T09:32:34.827Z,6.72
2019-04-22T09:35:18.676Z,7.60
2019-04-22T09:37:34.901Z,4.92
2019-04-22T09:40:14.011Z,5.90
2019-04-22T09:42:40.940Z,6.42
2019-04-22T09:45:06.076Z,7.12
2019-04-22T09:47:40.930Z,6.30
2019-04-22T09:50:08.200Z,5.62
2019-04-22T09:52:36.566Z,10.38
2019-04-22T09:55:07.571Z,4.85
2019-04-22T09:57:33.928Z,8.60
2019-04-22T10:02:41.071Z,6.65
2019-04-22T10:05:07.718Z,4.58
2019-04-22T10:07:44.860Z,5.47
2019-04-22T10:10:15.154Z,5.80
2019-04-22T10:12:32.152Z,5.22
2019-04-22T10:14:55.748Z,9.90
2019-04-22T10:17:26.101Z,5.53
2019-04-22T10:20:00.619Z,4.58
2019-04-22T10:22:34.184Z,3.95
2019-04-22T10:24:57.069Z,7.25
2019-04-22T10:27:27.982Z,5.42
2019-04-22T10:32:28.043Z,4.33
2019-04-22T10:34:40.923Z,6.42
2019-04-22T10:37:11.002Z,7.42
2019-04-22T10:39:45.130Z,5.00
2019-04-22T10:42:05.236Z,4.15
2019-04-22T10:44:33.252Z,7.12
2019-04-22T10:47:02.164Z,5.92
2019-04-22T10:49:30.583Z,4.33
2019-04-22T10:51:58.393Z,6.70
2019-04-22T10:54:25.674Z,5.62
2019-04-22T10:56:53.135Z,7.40
2019-04-22T10:59:20.711Z,4.45
2019-04-22T11:01:48.690Z,5.30
2019-04-22T11:04:17.448Z,6.75
2019-04-22T11:06:53.142Z,7.15
2019-04-22T11:09:14.407Z,5.95
2019-04-22T11:11:49.155Z,16.95
2019-04-22T11:14:12.666Z,6.58
2019-04-22T11:16:41.539Z,5.78
2019-04-22T11:19:09.808Z,4.65
2019-04-22T11:21:37.925Z,4.15
2019-04-22T11:24:05.330Z,5.50
2019-04-22T11:26:32.498Z,6.42
2019-04-22T11:29:01.371Z,5.45
2019-04-22T11:31:30.563Z,7.17
2019-04-22T11:33:58.524Z,4.92
2019-04-22T11:36:29.141Z,7.20
2019-04-22T11:39:00.090Z,6.05
2019-04-22T11:41:25.614Z,5.20
2019-04-22T11:43:53.568Z,5.45
2019-04-22T11:46:21.140Z,5.05
2019-04-22T11:48:49.807Z,5.53
2019-04-22T11:51:18.238Z,4.92
2019-04-22T11:53:47.054Z,5.22
2019-04-22T11:56:14.531Z,6.00
2019-04-22T11:58:42.659Z,6.05
2019-04-22T12:01:10.751Z,4.42
2019-04-22T12:03:39.918Z,6.62
2019-04-22T12:06:08.382Z,4.17
2019-04-22T12:08:37.355Z,5.33
2019-04-22T12:11:06.103Z,4.53
2019-04-22T12:13:34.175Z,6.87
2019-04-22T12:16:03.302Z,4.97
2019-04-22T12:18:31.303Z,5.75
2019-04-22T12:20:59.214Z,4.58
2019-04-22T12:23:27.362Z,5.05
2019-04-22T12:26:01.862Z,5.15
2019-04-22T12:28:24.277Z,5.03
2019-04-22T12:30:51.466Z,6.40
2019-04-22T12:33:19.177Z,3.90
2019-04-22T12:35:48.432Z,4.30
2019-04-22T12:38:18.322Z,5.95
2019-04-22T12:40:53.220Z,5.72
2019-04-22T12:43:18.083Z,7.87
2019-04-22T12:45:44.764Z,5.78
2019-04-22T12:48:12.839Z,7.37
2019-04-22T12:50:43.415Z,3.90
2019-04-22T12:53:13.798Z,5.00
2019-04-22T12:55:39.695Z,6.60
2019-04-22T12:58:07.625Z,3.95
2019-04-22T13:00:36.225Z,5.12
2019-04-22T13:03:05.115Z,4.65
2019-04-22T13:05:33.441Z,5.67
2019-04-22T13:08:02.012Z,5.37
2019-04-22T13:10:41.583Z,4.37
2019-04-22T13:13:00.749Z,4.37
2019-04-22T13:15:28.876Z,6.45
2019-04-22T13:18:05.989Z,6.22
2019-04-22T13:20:26.274Z,3.30
2019-04-22T13:22:54.709Z,5.12
2019-04-22T13:25:25.008Z,7.35
2019-04-22T13:27:53.318Z,4.97
2019-04-22T13:30:22.941Z,5.35
2019-04-22T13:32:50.644Z,4.12
2019-04-22T13:35:20.022Z,3.80
2019-04-22T13:37:48.761Z,4.12
2019-04-22T13:40:16.902Z,4.92
2019-04-22T13:42:44.868Z,4.37
2019-04-22T13:45:13.805Z,5.37
2019-04-22T13:48:02.957Z,3.98
2019-04-22T13:51:36.192Z,4.47
2019-04-22T13:53:18.307Z,3.95
2019-04-22T13:55:41.749Z,6.05
2019-04-22T13:57:57.227Z,4.42
2019-04-22T14:00:13.707Z,6.05
2019-04-22T14:03:08.915Z,4.95
2019-04-22T14:05:37.223Z,5.28
2019-04-22T14:08:06.284Z,6.83
2019-04-22T14:10:34.476Z,3.75
2019-04-22T14:13:03.698Z,3.35
2019-04-22T14:15:31.958Z,3.95
2019-04-22T14:18:00.979Z,5.22
2019-04-22T14:20:30.818Z,7.35
2019-04-22T14:22:58.746Z,5.25
2019-04-22T14:25:26.620Z,4.70
2019-04-22T14:28:01.226Z,3.80
2019-04-22T14:30:24.475Z,4.83
2019-04-22T14:32:52.336Z,4.75
2019-04-22T14:35:20.868Z,6.75
2019-04-22T14:37:50.183Z,3.87
2019-04-22T14:40:18.775Z,5.53
2019-04-22T14:43:06.004Z,9.40
2019-04-22T14:45:50.263Z,4.28
2019-04-22T14:48:10.997Z,5.33
2019-04-22T14:50:38.752Z,4.08
2019-04-22T14:53:08.118Z,3.87
2019-04-22T14:55:22.656Z,3.58
2019-04-22T14:57:46.828Z,3.92
2019-04-22T15:00:16.143Z,3.40
2019-04-22T15:02:43.869Z,3.50
2019-04-22T15:05:12.221Z,3.85
2019-04-22T15:07:41.200Z,3.75
2019-04-22T15:10:10.238Z,4.78
2019-04-22T15:12:45.721Z,4.95
2019-04-22T15:15:43.318Z,3.27
2019-04-22T15:18:13.555Z,4.95
2019-04-22T15:20:58.681Z,3.80
2019-04-22T15:23:26.727Z,6.62
2019-04-22T15:25:54.756Z,8.13
2019-04-22T15:28:23.652Z,3.80
2019-04-22T15:30:51.331Z,6.25
2019-04-22T15:33:19.405Z,4.40
2019-04-22T15:35:49.347Z,3.85
2019-04-22T15:38:17.447Z,4.00
2019-04-22T15:40:46.967Z,3.12
2019-04-22T15:43:14.957Z,5.62
2019-04-22T15:45:43.324Z,7.55
2019-04-22T15:48:11.774Z,4.70
2019-04-22T15:50:40.391Z,4.25
2019-04-22T15:53:09.649Z,4.40
2019-04-22T15:55:38.801Z,4.70
2019-04-22T15:58:07.808Z,5.15
2019-04-22T16:00:51.049Z,6.55
2019-04-22T16:03:08.138Z,5.97
2019-04-22T16:05:34.427Z,4.28
2019-04-22T16:08:03.235Z,4.00
2019-04-22T16:10:30.854Z,4.60
2019-04-22T16:13:07.331Z,3.08
2019-04-22T16:15:28.805Z,10.08
2019-04-22T16:17:56.275Z,3.08
2019-04-22T16:20:23.954Z,3.67
2019-04-22T16:23:29.777Z,4.00
2019-04-22T16:26:03.146Z,3.90
2019-04-22T16:28:31.274Z,3.42
2019-04-22T16:30:59.662Z,5.62
2019-04-22T16:33:27.734Z,3.90
2019-04-22T16:35:55.131Z,3.65
2019-04-22T16:38:22.737Z,5.92
2019-04-22T16:40:50.526Z,5.53
2019-04-22T16:43:17.804Z,5.20
2019-04-22T16:45:45.580Z,4.42
2019-04-22T16:48:13.641Z,4.92
2019-04-22T16:50:43.585Z,3.40
2019-04-22T16:53:10.670Z,6.58
2019-04-22T16:55:39.100Z,3.95
2019-04-22T16:58:10.532Z,3.80
2019-04-22T17:00:38.531Z,4.90
2019-04-22T17:03:24.780Z,4.75
2019-04-22T17:06:17.199Z,15.32
2019-04-22T17:08:44.866Z,5.20
2019-04-22T17:11:12.069Z,5.42
2019-04-22T17:13:40.349Z,5.58
2019-04-22T17:16:09.872Z,5.15
2019-04-22T17:18:37.291Z,8.78
2019-04-22T17:21:08.200Z,4.30
2019-04-22T17:23:35.779Z,4.42
2019-04-22T17:26:03.467Z,3.92
2019-04-22T17:28:31.289Z,6.45
2019-04-22T17:30:59.472Z,4.72
2019-04-22T17:33:28.745Z,4.62
2019-04-22T17:35:57.035Z,3.42
2019-04-22T17:38:33.905Z,4.83
2019-04-22T17:41:09.068Z,6.62
2019-04-22T17:43:54.243Z,4.28
2019-04-22T17:46:19.596Z,4.47
2019-04-22T17:48:57.834Z,4.85
2019-04-22T17:51:32.900Z,3.65
2019-04-22T17:53:59.886Z,6.75
2019-04-22T17:56:27.923Z,3.10
2019-04-22T17:59:00.393Z,5.28
2019-04-22T18:01:23.957Z,5.67
2019-04-22T18:03:39.170Z,3.83
2019-04-22T18:06:08.794Z,5.92
2019-04-22T18:08:51.873Z,3.42
2019-04-22T18:11:29.213Z,3.62
2019-04-22T18:13:52.034Z,3.33
2019-04-22T18:16:19.522Z,3.47
2019-04-22T18:18:47.378Z,3.95
2019-04-22T18:21:13.109Z,4.00
2019-04-22T18:23:31.002Z,4.80
2019-04-22T18:26:14.932Z,2.90
2019-04-22T18:28:50.861Z,4.17
2019-04-22T18:31:12.055Z,3.62
2019-04-22T18:33:40.774Z,3.42
2019-04-22T18:36:09.669Z,3.60
2019-04-22T18:38:52.612Z,3.58
2019-04-22T18:41:09.674Z,3.27
2019-04-22T18:43:42.352Z,5.72
2019-04-22T18:46:15.659Z,3.47
2019-04-22T18:48:39.175Z,3.47
2019-04-22T18:51:24.430Z,3.45
2019-04-22T18:54:02.212Z,3.37
2019-04-22T18:56:37.614Z,4.90
2019-04-22T18:58:53.459Z,4.22
2019-04-22T19:01:12.361Z,7.53
2019-04-22T19:03:49.782Z,3.40
2019-04-22T19:06:46.103Z,3.08
2019-04-22T19:09:08.790Z,3.25
2019-04-22T19:11:27.009Z,4.87
2019-04-22T19:14:07.503Z,5.92
2019-04-22T19:19:20.415Z,7.25
2019-04-22T19:21:26.052Z,3.58
2019-04-22T19:23:54.332Z,3.20
2019-04-22T19:26:35.823Z,5.28
2019-04-22T19:28:55.557Z,3.02
2019-04-22T19:31:24.670Z,3.10
2019-04-22T19:34:00.721Z,4.05
2019-04-22T19:36:26.167Z,6.37
2019-04-22T19:38:52.657Z,4.10
2019-04-22T19:41:24.314Z,4.40
2019-04-22T19:43:49.156Z,4.72
2019-04-22T19:46:18.247Z,5.40
2019-04-22T19:48:50.116Z,4.60
2019-04-22T19:51:24.243Z,3.45
2019-04-22T19:53:54.569Z,3.77
2019-04-22T19:56:14.391Z,3.98
2019-04-22T19:58:44.469Z,5.10
2019-04-22T20:01:26.940Z,4.25
2019-04-22T20:04:47.664Z,2.70
2019-04-22T20:07:08.505Z,3.58
2019-04-22T20:09:46.754Z,3.62
2019-04-22T20:12:07.149Z,3.60
2019-04-22T20:14:34.991Z,5.42
2019-04-22T20:17:00.705Z,3.42
2019-04-22T20:19:41.424Z,2.98
2019-04-22T20:22:02.994Z,4.50
2019-04-22T20:24:18.779Z,6.67
2019-04-22T20:27:21.335Z,3.15
2019-04-22T20:29:37.720Z,6.25
2019-04-22T20:31:59.154Z,5.65
2019-04-22T20:34:44.055Z,4.35
2019-04-22T20:42:23.511Z,8.43
2019-04-22T20:44:39.684Z,3.50
2019-04-22T20:47:04.603Z,4.08
2019-04-22T20:49:35.532Z,4.08
2019-04-22T20:52:06.258Z,4.37
2019-04-22T20:54:39.103Z,2.95
2019-04-22T20:57:01.025Z,6.95
2019-04-22T20:59:34.207Z,8.38
2019-04-22T21:02:00.629Z,2.92
2019-04-22T21:04:23.986Z,4.37
2019-04-22T21:06:58.994Z,6.95
2019-04-22T21:09:27.298Z,4.78
2019-04-22T21:12:07.602Z,4.45
2019-04-22T21:14:32.389Z,4.00
2019-04-22T21:17:08.047Z,6.85
2019-04-22T21:22:07.937Z,3.30
2019-04-22T21:24:36.140Z,3.22
2019-04-22T21:27:11.946Z,3.65
2019-04-22T21:29:30.872Z,2.40
2019-04-22T21:32:05.768Z,3.15
2019-04-22T21:34:40.664Z,2.92
2019-04-22T21:37:12.245Z,3.60
2019-04-22T21:39:30.219Z,2.83
2019-04-22T21:42:03.368Z,3.65
2019-04-22T21:44:32.620Z,6.28
2019-04-22T21:47:10.856Z,2.67
2019-04-22T21:49:38.934Z,2.30
2019-04-22T21:52:01.655Z,5.28
2019-04-22T21:54:34.429Z,3.98
2019-04-22T21:59:46.109Z,3.95
2019-04-22T22:02:24.842Z,4.47
2019-04-22T22:04:44.492Z,4.58
2019-04-22T22:07:25.453Z,3.52
2019-04-22T22:10:12.312Z,2.47
2019-04-22T22:12:40.935Z,3.33
2019-04-22T22:15:07.270Z,5.80
2019-04-22T22:17:40.074Z,5.50
2019-04-22T22:20:03.377Z,5.40
2019-04-22T22:25:10.500Z,5.08
2019-04-22T22:27:37.603Z,3.00
2019-04-22T22:30:21.957Z,2.80
2019-04-22T22:32:35.411Z,6.22
2019-04-22T22:35:03.193Z,4.72
2019-04-22T22:37:21.986Z,5.80
2019-04-22T22:39:51.385Z,7.47
2019-04-22T22:42:25.369Z,6.15
2019-04-22T22:44:48.124Z,7.12
2019-04-22T22:47:35.819Z,6.40
2019-04-22T22:50:05.973Z,9.08
2019-04-22T22:52:51.670Z,5.80
2019-04-22T22:55:06.910Z,5.00
2019-04-22T22:57:35.177Z,4.62
2019-04-22T23:00:01.651Z,4.55
2019-04-22T23:02:28.653Z,5.42
2019-04-22T23:04:57.483Z,1.75
2019-04-22T23:07:52.597Z,4.08
2019-04-22T23:10:00.285Z,2.77
2019-04-22T23:12:34.708Z,3.92
2019-04-22T23:14:57.629Z,5.03
2019-04-22T23:17:11.843Z,3.20
2019-04-22T23:19:42.003Z,3.25
2019-04-22T23:22:14.479Z,1.98
2019-04-22T23:24:54.355Z,4.10
2019-04-22T23:27:34.221Z,5.00
2019-04-22T23:30:23.934Z,7.35
2019-04-22T23:33:01.207Z,5.05
2019-04-22T23:35:42.120Z,3.80
2019-04-22T23:38:13.787Z,3.25
2019-04-22T23:40:44.370Z,3.65
2019-04-22T23:43:19.499Z,5.30
2019-04-22T23:45:46.702Z,4.45
2019-04-22T23:48:06.869Z,5.83
2019-04-22T23:50:47.355Z,2.20
2019-04-22T23:53:33.139Z,2.67
2019-04-22T23:55:54.323Z,3.67
2019-04-22T23:58:44.775Z,6.20
